Погода Важенкона неделю

Поморское воеводство, Польша

16 - 22 июля
  • 16июля
    Сегодня
    +17°
    +28°
    Облачно с прояснениями
    ВремяПогодаТемператураВлажностьДавлениеВетер, м/сВероятность осадков
    02:00Облачно с прояснениями+18°C75 %758 мм2.6 м/с2 %
    05:00Практически безоблачно+18°C72 %758 мм3.0 м/с2 %
    08:00Небольшая облачность+23°C69 %758 мм3.2 м/с2 %
    11:00Облачно с прояснениями+26°C64 %757 мм4.4 м/с2 %
    14:00Облачно с прояснениями+28°C67 %755 мм5.5 м/с22 %
    17:00Пасмурно, дождь+24°C90 %755 мм3.1 м/с93 %
    20:00Небольшая облачность, ливень+21°C93 %755 мм2.4 м/с74 %
    23:00Ясно и безоблачно+19°C93 %756 мм4.6 м/с27 %
  • 17июля
    Среда
    +14°
    +24°
    Облачно с прояснениями
    ВремяПогодаТемператураВлажностьДавлениеВетер, м/сВероятность осадков
    02:00Ясно и безоблачно+18°C92 %757 мм6.0 м/с2 %
    05:00Ясно и безоблачно+17°C95 %758 мм4.3 м/с2 %
    08:00Практически безоблачно+20°C84 %759 мм5.1 м/с2 %
    11:00Ясно и безоблачно+23°C63 %760 мм6.0 м/с4 %
    14:00Облачно с прояснениями+24°C55 %760 мм6.3 м/с8 %
    17:00Практически безоблачно+22°C62 %761 мм6.0 м/с27 %
    20:00Ясно и безоблачно+20°C73 %761 мм3.7 м/с18 %
    23:00Ясно и безоблачно+17°C83 %762 мм2.9 м/с2 %
  • 18июля
    Четверг
    +13°
    +23°
    Ясно и безоблачно
    ВремяПогодаТемператураВлажностьДавлениеВетер, м/сВероятность осадков
    02:00Практически безоблачно+16°C84 %762 мм3.8 м/с2 %
    05:00Ясно и безоблачно+15°C88 %762 мм4.2 м/с2 %
    08:00Облачно с прояснениями+18°C79 %763 мм5.8 м/с2 %
    11:00Небольшая облачность и лёгкий дождик+21°C68 %763 мм5.3 м/с33 %
    14:00Ясно и безоблачно+23°C59 %763 мм6.4 м/с20 %
    17:00Ясно и безоблачно+21°C60 %763 мм6.4 м/с5 %
    20:00Ясно и безоблачно+18°C69 %764 мм5.1 м/с2 %
    23:00Практически безоблачно+15°C78 %764 мм4.3 м/с2 %
  • 19июля
    Пятница
    +13°
    +23°
    Ясно и безоблачно
    ВремяПогодаТемператураВлажностьДавлениеВетер, м/сВероятность осадков
    02:00Облачно с прояснениями+14°C85 %764 мм4.1 м/с2 %
    05:00Облачно с прояснениями+13°C90 %763 мм4.2 м/с2 %
    08:00Практически безоблачно+17°C83 %763 мм4.4 м/с2 %
    11:00Практически безоблачно+21°C62 %763 мм5.3 м/с2 %
    14:00Ясно и безоблачно+22°C57 %763 мм5.6 м/с2 %
    17:00Ясно и безоблачно+21°C60 %763 мм5.6 м/с2 %
    20:00Ясно и безоблачно+19°C72 %762 мм4.0 м/с2 %
    23:00Ясно и безоблачно+15°C80 %762 мм4.4 м/с2 %
  • 20июля
    Суббота
    +12°
    +24°
    Облачно с прояснениями
    ВремяПогодаТемператураВлажностьДавлениеВетер, м/сВероятность осадков
    02:00Практически безоблачно+14°C87 %762 мм4.5 м/с2 %
    05:00Ясно и безоблачно+14°C93 %761 мм4.2 м/с2 %
    08:00Ясно и безоблачно+18°C84 %761 мм4.1 м/с2 %
    11:00Облачно с прояснениями+23°C66 %761 мм3.9 м/с3 %
    14:00Облачно с прояснениями+23°C61 %761 мм3.6 м/с5 %
    17:00Ясно и безоблачно+22°C61 %760 мм3.2 м/с5 %
    20:00Ясно и безоблачно+20°C75 %760 мм1.3 м/с2 %
    23:00Ясно и безоблачно+16°C87 %760 мм0.9 м/с2 %
Мы используем cookies
Соглашаюсь